createdAt,value
2023-05-25T00:00:00.668Z,3.97
2023-05-25T00:02:27.903Z,4.40
2023-05-25T00:04:55.027Z,4.15
2023-05-25T00:07:22.189Z,3.63
2023-05-25T00:09:49.263Z,4.47
2023-05-25T00:12:16.416Z,4.32
2023-05-25T00:14:43.504Z,4.35
2023-05-25T00:17:11.350Z,4.70
2023-05-25T00:19:42.484Z,3.72
2023-05-25T00:22:10.470Z,4.05
2023-05-25T00:24:38.041Z,3.85
2023-05-25T00:27:06.956Z,4.40
2023-05-25T00:29:34.345Z,4.03
2023-05-25T00:32:01.516Z,3.58
2023-05-25T00:34:28.735Z,3.97
2023-05-25T00:36:55.835Z,3.83
2023-05-25T00:39:22.954Z,3.67
2023-05-25T00:41:50.151Z,3.97
2023-05-25T00:44:21.587Z,3.60
2023-05-25T00:46:50.710Z,4.63
2023-05-25T00:49:18.961Z,4.30
2023-05-25T00:51:46.781Z,4.45
2023-05-25T00:54:17.123Z,4.30
2023-05-25T00:56:48.219Z,4.10
2023-05-25T00:59:25.674Z,3.72
2023-05-25T01:01:54.407Z,4.43
2023-05-25T01:04:22.323Z,4.40
2023-05-25T01:06:49.961Z,3.80
2023-05-25T01:09:18.181Z,4.05
2023-05-25T01:11:45.720Z,3.60
2023-05-25T01:14:13.325Z,4.20
2023-05-25T01:16:40.873Z,4.32
2023-05-25T01:19:07.984Z,5.65
2023-05-25T01:21:42.471Z,3.50
2023-05-25T01:24:22.362Z,5.03
2023-05-25T01:26:53.898Z,4.43
2023-05-25T01:29:22.005Z,4.40
2023-05-25T01:31:49.441Z,4.13
2023-05-25T01:34:17.332Z,3.75
2023-05-25T01:36:44.539Z,4.30
2023-05-25T01:39:12.669Z,5.20
2023-05-25T01:41:39.815Z,4.25
2023-05-25T01:44:07.708Z,4.47
2023-05-25T01:46:41.621Z,4.88
2023-05-25T01:51:58.116Z,4.32
2023-05-25T01:54:29.585Z,4.97
2023-05-25T01:57:01.321Z,5.35
2023-05-25T01:59:29.207Z,4.53
2023-05-25T02:01:56.810Z,4.95
2023-05-25T02:04:24.045Z,5.47
2023-05-25T02:06:52.733Z,5.88
2023-05-25T02:09:19.896Z,6.10
2023-05-25T02:11:46.997Z,5.93
2023-05-25T02:14:14.131Z,5.35
2023-05-25T02:16:41.271Z,6.82
2023-05-25T02:19:08.323Z,6.65
2023-05-25T02:21:37.621Z,7.03
2023-05-25T02:24:04.800Z,6.95
2023-05-25T02:26:31.907Z,7.10
2023-05-25T02:28:58.993Z,6.75
2023-05-25T02:31:26.215Z,7.70
2023-05-25T02:33:53.341Z,8.30
2023-05-25T02:36:21.064Z,7.45
2023-05-25T02:38:49.910Z,7.78
2023-05-25T02:41:17.116Z,8.85
2023-05-25T02:43:44.293Z,9.18
2023-05-25T02:46:11.487Z,9.63
2023-05-25T02:48:38.601Z,10.68
2023-05-25T02:51:06.004Z,10.55
2023-05-25T02:53:33.128Z,11.65
2023-05-25T02:56:02.091Z,11.85
2023-05-25T02:58:29.157Z,12.18
2023-05-25T03:00:56.289Z,12.45
2023-05-25T03:03:23.428Z,13.27
2023-05-25T03:05:50.535Z,14.65
2023-05-25T03:08:17.718Z,13.02
2023-05-25T03:10:45.010Z,13.48
2023-05-25T03:13:12.094Z,13.50
2023-05-25T03:15:40.171Z,14.60
2023-05-25T03:18:07.538Z,13.00
2023-05-25T03:20:34.864Z,13.05
2023-05-25T03:23:02.149Z,12.95
2023-05-25T03:25:29.234Z,13.15
2023-05-25T03:27:56.398Z,13.43
2023-05-25T03:30:24.002Z,13.25
2023-05-25T03:32:51.209Z,12.13
2023-05-25T03:35:18.452Z,12.30
2023-05-25T03:37:45.644Z,11.52
2023-05-25T03:40:12.851Z,12.90
2023-05-25T03:42:40.900Z,11.48
2023-05-25T03:45:09.258Z,10.55
2023-05-25T03:47:39.494Z,11.82
2023-05-25T03:50:10.110Z,11.38
2023-05-25T03:52:37.294Z,11.70
2023-05-25T03:55:05.778Z,10.85
2023-05-25T03:57:32.965Z,12.05
2023-05-25T04:00:00.170Z,10.70
2023-05-25T04:02:27.550Z,10.93
2023-05-25T04:04:56.468Z,11.75
2023-05-25T04:07:23.562Z,10.65
2023-05-25T04:09:50.784Z,10.77
2023-05-25T04:12:17.919Z,11.43
2023-05-25T04:14:46.052Z,9.98
2023-05-25T04:17:13.240Z,10.38
2023-05-25T04:19:40.330Z,9.48
2023-05-25T04:22:07.418Z,11.18
2023-05-25T04:24:34.893Z,10.70
2023-05-25T04:27:02.247Z,11.20
2023-05-25T04:29:29.648Z,10.77
2023-05-25T04:31:56.833Z,9.73
2023-05-25T04:34:24.069Z,10.65
2023-05-25T04:36:51.152Z,9.52
2023-05-25T04:39:18.622Z,10.77
2023-05-25T04:41:45.731Z,11.10
2023-05-25T04:44:13.945Z,10.88
2023-05-25T04:46:41.309Z,11.23
2023-05-25T04:49:08.637Z,10.15
2023-05-25T04:51:36.904Z,10.38
2023-05-25T04:54:04.299Z,9.30
2023-05-25T04:56:31.443Z,10.18
2023-05-25T04:58:58.625Z,11.43
2023-05-25T05:01:26.589Z,10.90
2023-05-25T05:03:53.773Z,10.25
2023-05-25T05:06:21.717Z,10.35
2023-05-25T05:08:48.824Z,11.60
2023-05-25T05:11:15.913Z,11.02
2023-05-25T05:13:42.972Z,10.02
2023-05-25T05:16:10.196Z,10.68
2023-05-25T05:18:37.374Z,10.18
2023-05-25T05:21:04.483Z,10.88
2023-05-25T05:23:33.827Z,11.55
2023-05-25T05:26:01.348Z,10.18
2023-05-25T05:28:29.799Z,10.18
2023-05-25T05:30:56.931Z,9.63
2023-05-25T05:33:24.374Z,10.52
2023-05-25T05:35:52.463Z,10.10
2023-05-25T05:38:19.869Z,10.68
2023-05-25T05:40:47.166Z,11.18
2023-05-25T05:43:14.940Z,11.23
2023-05-25T05:45:42.124Z,11.00
2023-05-25T05:48:12.544Z,11.02
2023-05-25T05:50:42.060Z,11.00
2023-05-25T05:53:10.045Z,10.45
2023-05-25T05:55:37.474Z,11.82
2023-05-25T05:58:04.697Z,10.88
2023-05-25T06:00:31.852Z,10.98
2023-05-25T06:03:00.793Z,11.20
2023-05-25T06:05:28.317Z,10.25
2023-05-25T06:07:55.473Z,10.77
2023-05-25T06:10:22.635Z,10.55
2023-05-25T06:12:49.793Z,11.07
2023-05-25T06:15:16.989Z,10.95
2023-05-25T06:17:44.263Z,9.98
2023-05-25T06:20:11.566Z,10.85
2023-05-25T06:22:38.790Z,10.60
2023-05-25T06:25:06.301Z,11.50
2023-05-25T06:27:33.381Z,9.80
2023-05-25T06:30:00.542Z,9.93
2023-05-25T06:32:27.716Z,11.18
2023-05-25T06:34:55.587Z,10.52
2023-05-25T06:37:22.753Z,10.60
2023-05-25T06:39:49.863Z,9.77
2023-05-25T06:42:16.989Z,9.55
2023-05-25T06:44:44.032Z,11.40
2023-05-25T06:47:11.254Z,10.27
2023-05-25T06:49:38.354Z,11.88
2023-05-25T06:52:05.628Z,10.23
2023-05-25T06:54:33.015Z,9.98
2023-05-25T06:57:00.105Z,10.32
2023-05-25T06:59:27.705Z,9.82
2023-05-25T07:01:56.210Z,10.48
2023-05-25T07:04:23.598Z,10.88
2023-05-25T07:06:51.854Z,10.45
2023-05-25T07:09:18.937Z,10.30
2023-05-25T07:11:46.281Z,9.52
2023-05-25T07:14:13.712Z,9.90
2023-05-25T07:16:40.916Z,10.85
2023-05-25T07:19:08.198Z,10.05
2023-05-25T07:21:36.475Z,9.85
2023-05-25T07:24:03.991Z,10.25
2023-05-25T07:26:36.482Z,10.15
2023-05-25T07:29:03.727Z,10.80
2023-05-25T07:31:30.924Z,11.18
2023-05-25T07:33:58.042Z,11.18
2023-05-25T07:36:25.151Z,9.85
2023-05-25T07:38:52.730Z,9.82
2023-05-25T07:41:19.907Z,9.50
2023-05-25T07:43:46.999Z,10.50
2023-05-25T07:46:14.122Z,9.80
2023-05-25T07:48:41.324Z,10.25
2023-05-25T07:51:08.801Z,9.93
2023-05-25T07:53:36.227Z,10.45
2023-05-25T07:56:03.612Z,9.25
2023-05-25T07:58:30.780Z,10.43
2023-05-25T08:00:57.962Z,9.15
2023-05-25T08:03:39.862Z,9.63
2023-05-25T08:06:12.559Z,8.43
2023-05-25T08:08:39.680Z,9.32
2023-05-25T08:11:06.307Z,9.75
2023-05-25T08:13:33.021Z,8.88
2023-05-25T08:15:59.683Z,9.63
2023-05-25T08:18:26.413Z,10.00
2023-05-25T08:20:53.108Z,9.10
2023-05-25T08:23:19.792Z,9.70
2023-05-25T08:25:46.667Z,8.90
2023-05-25T08:28:13.582Z,8.73
2023-05-25T08:30:41.160Z,8.32
2023-05-25T08:33:08.621Z,9.07
2023-05-25T08:35:39.267Z,8.32
2023-05-25T08:38:06.403Z,9.25
2023-05-25T08:40:33.452Z,9.18
2023-05-25T08:43:00.540Z,9.38
2023-05-25T08:48:01.001Z,9.75
2023-05-25T08:50:28.589Z,8.75
2023-05-25T08:52:56.252Z,9.15
2023-05-25T08:55:23.832Z,8.57
2023-05-25T08:57:55.771Z,8.68
2023-05-25T09:00:26.301Z,8.82
2023-05-25T09:02:59.529Z,9.45
2023-05-25T09:05:26.895Z,6.13
2023-05-25T09:07:54.808Z,8.02
2023-05-25T09:10:22.938Z,8.77
2023-05-25T09:12:51.705Z,8.02
2023-05-25T09:15:19.370Z,7.55
2023-05-25T09:17:46.612Z,9.40
2023-05-25T09:20:14.305Z,8.55
2023-05-25T09:22:42.201Z,8.10
2023-05-25T09:25:11.483Z,8.13
2023-05-25T09:27:38.719Z,8.55
2023-05-25T09:30:06.594Z,7.97
2023-05-25T09:32:33.833Z,8.63
2023-05-25T09:35:07.841Z,8.50
2023-05-25T09:40:02.217Z,7.82
2023-05-25T09:42:29.972Z,9.20
2023-05-25T09:44:58.836Z,9.02
2023-05-25T09:47:26.036Z,8.52
2023-05-25T09:49:53.584Z,7.85
2023-05-25T09:52:21.491Z,7.97
2023-05-25T09:54:49.213Z,8.55
2023-05-25T09:57:17.083Z,7.57
2023-05-25T09:59:45.220Z,8.57
2023-05-25T10:02:13.138Z,8.02
2023-05-25T10:04:41.271Z,7.90
2023-05-25T10:07:09.025Z,8.57
2023-05-25T10:09:44.001Z,7.65
2023-05-25T10:12:11.891Z,8.15
2023-05-25T10:14:39.078Z,8.02
2023-05-25T10:17:07.549Z,8.23
2023-05-25T10:19:42.782Z,9.15
2023-05-25T10:22:09.939Z,8.70
2023-05-25T10:24:45.890Z,8.98
2023-05-25T10:27:26.403Z,8.55
2023-05-25T10:29:56.562Z,8.73
2023-05-25T10:32:23.819Z,8.43
2023-05-25T10:34:52.950Z,8.38
2023-05-25T10:37:20.114Z,10.50
2023-05-25T10:39:47.342Z,10.18
2023-05-25T10:42:14.071Z,9.63
2023-05-25T10:44:44.737Z,10.73
2023-05-25T10:47:12.272Z,10.77
2023-05-25T10:49:56.116Z,10.32
2023-05-25T10:52:27.700Z,9.25
2023-05-25T10:55:01.546Z,8.85
2023-05-25T11:00:00.996Z,9.20
2023-05-25T11:02:28.960Z,8.77
2023-05-25T11:05:30.789Z,9.07
2023-05-25T11:07:58.578Z,8.10
2023-05-25T11:10:50.297Z,9.27
2023-05-25T11:13:32.753Z,8.98
2023-05-25T11:16:18.221Z,11.23
2023-05-25T11:18:46.536Z,8.63
2023-05-25T11:21:18.785Z,9.73
2023-05-25T11:24:04.383Z,9.82
2023-05-25T11:26:33.402Z,9.75
2023-05-25T11:29:01.806Z,8.77
2023-05-25T11:31:36.358Z,9.75
2023-05-25T11:34:06.321Z,8.70
2023-05-25T11:36:35.367Z,8.93
2023-05-25T11:39:10.918Z,9.32
2023-05-25T11:41:42.147Z,9.50
2023-05-25T11:44:09.244Z,8.65
2023-05-25T11:46:38.849Z,9.32
2023-05-25T11:49:06.078Z,9.38
2023-05-25T11:51:33.192Z,8.80
2023-05-25T11:54:00.546Z,9.18
2023-05-25T11:56:35.697Z,8.57
2023-05-25T11:59:03.315Z,7.88
2023-05-25T12:01:32.067Z,8.63
2023-05-25T12:03:59.790Z,8.95
2023-05-25T12:06:28.970Z,8.98
2023-05-25T12:08:56.673Z,8.82
2023-05-25T12:11:39.621Z,8.88
2023-05-25T12:14:08.322Z,8.73
2023-05-25T12:16:38.726Z,8.20
2023-05-25T12:19:06.123Z,7.75
2023-05-25T12:21:33.554Z,8.38
2023-05-25T12:24:01.603Z,7.90
2023-05-25T12:26:28.749Z,7.05
2023-05-25T12:29:00.198Z,7.22
2023-05-25T12:31:28.483Z,7.47
2023-05-25T12:34:05.278Z,6.95
2023-05-25T12:36:39.761Z,7.60
2023-05-25T12:39:07.480Z,7.60
2023-05-25T12:41:44.690Z,7.05
2023-05-25T12:44:18.878Z,7.53
2023-05-25T12:46:46.156Z,8.00
2023-05-25T12:49:32.106Z,8.18
2023-05-25T12:52:01.203Z,7.97
2023-05-25T12:54:35.658Z,8.10
2023-05-25T12:57:05.585Z,8.52
2023-05-25T12:59:33.556Z,7.05
2023-05-25T13:02:00.593Z,7.60
2023-05-25T13:04:27.696Z,8.32
2023-05-25T13:06:55.555Z,8.55
2023-05-25T13:09:29.573Z,7.07
2023-05-25T13:11:57.091Z,7.47
2023-05-25T13:14:24.545Z,8.02
2023-05-25T13:16:52.297Z,7.15
2023-05-25T13:19:20.705Z,8.18
2023-05-25T13:21:49.368Z,8.57
2023-05-25T13:24:16.658Z,7.40
2023-05-25T13:26:45.666Z,8.60
2023-05-25T13:29:13.756Z,8.27
2023-05-25T13:31:41.838Z,8.07
2023-05-25T13:34:09.267Z,8.63
2023-05-25T13:36:36.915Z,8.43
2023-05-25T13:39:05.366Z,9.30
2023-05-25T13:41:32.600Z,7.72
2023-05-25T13:43:59.787Z,8.00
2023-05-25T13:49:00.404Z,8.52
2023-05-25T13:51:27.537Z,9.20
2023-05-25T13:53:54.658Z,8.48
2023-05-25T13:56:22.284Z,7.82
2023-05-25T13:58:49.568Z,8.60
2023-05-25T14:01:16.828Z,8.68
2023-05-25T14:03:44.257Z,8.48
2023-05-25T14:06:11.378Z,8.70
2023-05-25T14:08:38.689Z,8.25
2023-05-25T14:11:05.852Z,8.55
2023-05-25T14:13:33.550Z,7.95
2023-05-25T14:16:01.136Z,9.27
2023-05-25T14:18:28.342Z,8.23
2023-05-25T14:20:55.579Z,8.10
2023-05-25T14:23:23.214Z,7.75
2023-05-25T14:25:50.406Z,7.47
2023-05-25T14:28:17.580Z,8.23
2023-05-25T14:30:44.718Z,7.85
2023-05-25T14:33:15.741Z,7.97
2023-05-25T14:35:43.516Z,7.63
2023-05-25T14:38:11.158Z,7.95
2023-05-25T14:40:38.348Z,6.97
2023-05-25T14:43:05.520Z,8.25
2023-05-25T14:45:32.607Z,6.40
2023-05-25T14:48:11.902Z,6.53
2023-05-25T14:50:44.575Z,6.82
2023-05-25T14:53:11.976Z,7.57
2023-05-25T14:55:40.820Z,7.03
2023-05-25T14:58:08.051Z,5.80
2023-05-25T15:00:35.250Z,6.47
2023-05-25T15:03:02.648Z,6.03
2023-05-25T15:05:29.822Z,6.32
2023-05-25T15:07:56.904Z,6.25
2023-05-25T15:10:24.155Z,6.53
2023-05-25T15:12:51.238Z,7.47
2023-05-25T15:15:18.513Z,6.75
2023-05-25T15:17:45.797Z,7.18
2023-05-25T15:20:13.083Z,7.20
2023-05-25T15:22:40.806Z,6.47
2023-05-25T15:25:08.279Z,6.65
2023-05-25T15:27:35.435Z,6.82
2023-05-25T15:30:03.054Z,6.28
2023-05-25T15:32:30.201Z,6.40
2023-05-25T15:34:57.485Z,5.28
2023-05-25T15:37:24.585Z,5.72
2023-05-25T15:39:51.725Z,5.10
2023-05-25T15:42:20.505Z,5.57
2023-05-25T15:44:48.713Z,5.40
2023-05-25T15:47:16.088Z,5.28
2023-05-25T15:49:43.155Z,5.57
2023-05-25T15:52:10.244Z,4.82
2023-05-25T15:54:37.347Z,5.57
2023-05-25T15:57:04.627Z,5.93
2023-05-25T15:59:31.882Z,5.35
2023-05-25T16:01:59.156Z,5.57
2023-05-25T16:04:26.457Z,4.70
2023-05-25T16:06:53.569Z,5.47
2023-05-25T16:09:20.662Z,5.47
2023-05-25T16:11:47.895Z,5.47
2023-05-25T16:14:15.028Z,5.15
2023-05-25T16:16:42.441Z,5.18
2023-05-25T16:19:10.508Z,5.97
2023-05-25T16:21:39.501Z,5.10
2023-05-25T16:24:07.209Z,4.70
2023-05-25T16:26:35.199Z,4.93
2023-05-25T16:29:02.358Z,5.07
2023-05-25T16:31:29.639Z,4.82
2023-05-25T16:33:56.880Z,6.15
2023-05-25T16:36:25.297Z,4.95
2023-05-25T16:38:53.769Z,5.40
2023-05-25T16:41:20.918Z,4.82
2023-05-25T16:43:47.971Z,5.47
2023-05-25T16:46:15.405Z,5.05
2023-05-25T16:48:42.577Z,4.80
2023-05-25T16:51:14.850Z,5.10
2023-05-25T16:53:43.397Z,4.63
2023-05-25T16:56:11.027Z,4.90
2023-05-25T16:58:38.128Z,5.00
2023-05-25T17:01:06.113Z,5.30
2023-05-25T17:03:34.239Z,5.20
2023-05-25T17:06:01.583Z,4.88
2023-05-25T17:08:28.879Z,5.55
2023-05-25T17:10:56.622Z,4.60
2023-05-25T17:13:23.746Z,3.97
2023-05-25T17:15:50.849Z,4.70
2023-05-25T17:18:18.051Z,4.60
2023-05-25T17:20:45.380Z,4.25
2023-05-25T17:23:12.542Z,4.47
2023-05-25T17:25:39.712Z,5.30
2023-05-25T17:28:06.897Z,4.63
2023-05-25T17:30:34.058Z,4.32
2023-05-25T17:33:01.733Z,4.80
2023-05-25T17:35:29.354Z,4.95
2023-05-25T17:37:56.573Z,5.47
2023-05-25T17:40:23.818Z,4.38
2023-05-25T17:42:50.914Z,4.60
2023-05-25T17:45:18.075Z,3.83
2023-05-25T17:47:45.313Z,4.50
2023-05-25T17:50:12.508Z,4.65
2023-05-25T17:52:39.613Z,4.05
2023-05-25T17:55:07.041Z,4.75
2023-05-25T17:57:34.108Z,4.60
2023-05-25T18:00:01.773Z,4.85
2023-05-25T18:02:30.279Z,4.63
2023-05-25T18:04:57.592Z,4.40
2023-05-25T18:07:25.138Z,5.05
2023-05-25T18:09:52.347Z,4.18
2023-05-25T18:12:19.472Z,4.95
2023-05-25T18:14:46.635Z,4.57
2023-05-25T18:17:13.862Z,4.00
2023-05-25T18:19:41.035Z,4.45
2023-05-25T18:22:08.112Z,4.75
2023-05-25T18:24:35.244Z,4.70
2023-05-25T18:27:03.742Z,4.50
2023-05-25T18:29:31.077Z,4.72
2023-05-25T18:31:58.312Z,4.68
2023-05-25T18:34:25.577Z,4.47
2023-05-25T18:36:52.710Z,4.90
2023-05-25T18:39:19.754Z,5.07
2023-05-25T18:41:47.072Z,4.40
2023-05-25T18:44:14.305Z,4.95
2023-05-25T18:46:43.667Z,3.90
2023-05-25T18:49:11.347Z,4.70
2023-05-25T18:51:38.552Z,4.85
2023-05-25T18:54:05.683Z,5.22
2023-05-25T18:56:32.825Z,5.05
2023-05-25T18:58:59.965Z,5.10
2023-05-25T19:01:27.280Z,5.20
2023-05-25T19:03:56.770Z,5.32
2023-05-25T19:06:25.368Z,5.15
2023-05-25T19:08:52.486Z,4.97
2023-05-25T19:11:20.013Z,5.63
2023-05-25T19:13:47.243Z,7.32
2023-05-25T19:16:14.497Z,8.20
2023-05-25T19:18:41.633Z,6.13
2023-05-25T19:21:08.869Z,5.05
2023-05-25T19:23:36.059Z,5.05
2023-05-25T19:26:03.160Z,4.90
2023-05-25T19:28:30.336Z,5.75
2023-05-25T19:30:57.394Z,6.68
2023-05-25T19:33:24.485Z,6.53
2023-05-25T19:35:51.674Z,6.20
2023-05-25T19:38:18.970Z,6.78
2023-05-25T19:40:46.177Z,7.05
2023-05-25T19:43:13.250Z,6.30
2023-05-25T19:45:40.726Z,6.30
2023-05-25T19:48:07.841Z,5.60
2023-05-25T19:50:35.051Z,6.53
2023-05-25T19:53:02.093Z,7.05
2023-05-25T19:55:29.559Z,6.60
2023-05-25T19:57:56.729Z,7.50
2023-05-25T20:00:26.794Z,7.20
2023-05-25T20:02:54.718Z,7.00
2023-05-25T20:05:21.977Z,6.93
2023-05-25T20:07:50.821Z,6.85
2023-05-25T20:10:18.011Z,7.55
2023-05-25T20:12:46.236Z,7.68
2023-05-25T20:15:13.357Z,7.28
2023-05-25T20:17:40.544Z,7.03
2023-05-25T20:20:07.931Z,7.38
2023-05-25T20:22:35.452Z,7.47
2023-05-25T20:25:02.838Z,7.82
2023-05-25T20:27:29.970Z,6.85
2023-05-25T20:29:57.313Z,6.93
2023-05-25T20:32:24.569Z,7.13
2023-05-25T20:34:51.777Z,6.70
2023-05-25T20:37:18.929Z,7.88
2023-05-25T20:39:46.015Z,7.32
2023-05-25T20:42:13.992Z,6.75
2023-05-25T20:44:41.189Z,7.07
2023-05-25T20:47:08.367Z,7.38
2023-05-25T20:49:35.685Z,7.13
2023-05-25T20:52:02.880Z,7.85
2023-05-25T20:54:30.151Z,6.53
2023-05-25T20:56:57.393Z,7.07
2023-05-25T20:59:24.575Z,7.32
2023-05-25T21:01:51.718Z,7.70
2023-05-25T21:04:19.195Z,7.95
2023-05-25T21:06:46.312Z,8.02
2023-05-25T21:09:13.502Z,7.18
2023-05-25T21:11:40.545Z,8.45
2023-05-25T21:14:08.064Z,7.75
2023-05-25T21:16:35.328Z,7.18
2023-05-25T21:19:02.533Z,8.07
2023-05-25T21:21:33.730Z,7.32
2023-05-25T21:24:01.560Z,7.63
2023-05-25T21:26:29.003Z,7.25
2023-05-25T21:28:56.132Z,7.32
2023-05-25T21:31:26.515Z,7.75
2023-05-25T21:33:53.452Z,7.93
2023-05-25T21:36:20.790Z,7.93
2023-05-25T21:38:47.517Z,7.40
2023-05-25T21:41:14.752Z,8.68
2023-05-25T21:43:41.840Z,8.75
2023-05-25T21:46:08.936Z,7.97
2023-05-25T21:48:36.036Z,8.13
2023-05-25T21:51:02.873Z,8.77
2023-05-25T21:53:30.013Z,8.07
2023-05-25T21:55:57.151Z,8.50
2023-05-25T21:58:23.827Z,8.52
2023-05-25T22:00:50.652Z,8.68
2023-05-25T22:03:18.499Z,8.63
2023-05-25T22:05:46.057Z,9.23
2023-05-25T22:08:13.319Z,9.10
2023-05-25T22:10:40.462Z,8.63
2023-05-25T22:13:07.883Z,7.95
2023-05-25T22:15:35.218Z,8.93
2023-05-25T22:18:02.536Z,9.25
2023-05-25T22:20:29.272Z,9.90
2023-05-25T22:22:56.016Z,9.10
2023-05-25T22:25:22.854Z,8.55
2023-05-25T22:27:49.536Z,8.23
2023-05-25T22:30:16.309Z,8.77
2023-05-25T22:32:43.517Z,9.50
2023-05-25T22:35:10.841Z,9.32
2023-05-25T22:37:37.925Z,9.82
2023-05-25T22:40:06.101Z,9.00
2023-05-25T22:42:32.836Z,9.52
2023-05-25T22:44:59.528Z,8.65
2023-05-25T22:47:26.301Z,9.10
2023-05-25T22:49:52.953Z,9.93
2023-05-25T22:52:19.704Z,9.18
2023-05-25T22:54:46.526Z,9.68
2023-05-25T22:57:13.181Z,9.40
2023-05-25T22:59:40.345Z,9.50
2023-05-25T23:02:07.917Z,9.38
2023-05-25T23:04:36.463Z,9.82
2023-05-25T23:07:03.254Z,9.77
2023-05-25T23:09:29.950Z,9.65
2023-05-25T23:11:56.660Z,10.07
2023-05-25T23:14:23.317Z,9.48
2023-05-25T23:16:50.043Z,10.45
2023-05-25T23:19:17.811Z,9.80
2023-05-25T23:21:44.544Z,10.18
2023-05-25T23:24:11.231Z,10.65
2023-05-25T23:26:37.919Z,9.70
2023-05-25T23:29:04.593Z,9.63
2023-05-25T23:31:31.451Z,10.35
2023-05-25T23:33:58.270Z,10.82
2023-05-25T23:36:26.242Z,11.27
2023-05-25T23:38:53.072Z,10.43
2023-05-25T23:41:19.779Z,10.43
2023-05-25T23:43:46.614Z,11.27
2023-05-25T23:46:17.284Z,10.80
2023-05-25T23:48:45.331Z,10.93
2023-05-25T23:51:12.513Z,11.07
2023-05-25T23:53:39.938Z,10.85
2023-05-25T23:56:07.212Z,10.57
2023-05-25T23:58:34.499Z,10.43
